createdAt,value
2018-01-17T00:04:15.434Z,2.60
2018-01-17T00:09:18.122Z,2.50
2018-01-17T00:14:20.960Z,2.40
2018-01-17T00:19:23.649Z,2.40
2018-01-17T00:24:26.598Z,2.40
2018-01-17T00:29:29.253Z,2.40
2018-01-17T00:34:32.616Z,2.40
2018-01-17T00:39:35.211Z,2.40
2018-01-17T00:44:39.551Z,2.30
2018-01-17T00:49:43.001Z,2.30
2018-01-17T00:54:46.647Z,2.30
2018-01-17T00:59:49.339Z,2.30
2018-01-17T01:04:52.343Z,2.30
2018-01-17T01:09:55.024Z,2.30
2018-01-17T01:14:58.807Z,2.30
2018-01-17T01:20:01.681Z,2.30
2018-01-17T01:25:04.878Z,2.20
2018-01-17T01:30:07.600Z,2.20
2018-01-17T01:35:10.739Z,2.20
2018-01-17T01:40:13.483Z,2.10
2018-01-17T01:45:16.805Z,2.10
2018-01-17T01:50:19.463Z,2.20
2018-01-17T01:55:24.122Z,2.20
2018-01-17T02:00:27.916Z,2.30
2018-01-17T02:05:31.697Z,2.30
2018-01-17T02:10:34.358Z,2.30
2018-01-17T02:15:37.478Z,2.30
2018-01-17T02:20:40.950Z,2.30
2018-01-17T02:25:44.457Z,2.30
2018-01-17T02:30:47.278Z,2.30
2018-01-17T02:35:50.061Z,2.20
2018-01-17T02:40:52.785Z,2.30
2018-01-17T02:45:56.052Z,2.30
2018-01-17T02:50:59.676Z,2.20
2018-01-17T02:56:03.918Z,2.10
2018-01-17T03:01:06.558Z,2.10
2018-01-17T03:06:09.722Z,2.00
2018-01-17T03:11:12.432Z,1.90
2018-01-17T03:16:16.238Z,1.70
2018-01-17T03:21:19.655Z,1.60
2018-01-17T03:26:23.293Z,1.50
2018-01-17T03:31:26.721Z,1.40
2018-01-17T03:36:29.520Z,1.40
2018-01-17T03:41:32.131Z,1.50
2018-01-17T03:46:35.498Z,1.40
2018-01-17T03:51:38.228Z,1.50
2018-01-17T03:56:41.280Z,1.40
2018-01-17T04:01:43.939Z,1.50
2018-01-17T04:06:47.154Z,1.50
2018-01-17T04:11:49.859Z,1.40
2018-01-17T04:16:53.106Z,1.40
2018-01-17T04:21:55.737Z,1.40
2018-01-17T04:26:58.969Z,1.40
2018-01-17T04:32:01.583Z,1.30
2018-01-17T04:37:04.821Z,1.30
2018-01-17T04:42:07.480Z,1.30
2018-01-17T04:47:10.903Z,1.30
2018-01-17T04:52:13.547Z,1.30
2018-01-17T04:57:16.626Z,1.20
2018-01-17T05:02:19.260Z,1.30
2018-01-17T05:07:22.624Z,1.20
2018-01-17T05:12:26.011Z,1.30
2018-01-17T05:17:29.483Z,1.30
2018-01-17T05:22:32.122Z,1.40
2018-01-17T05:27:35.312Z,1.40
2018-01-17T05:32:37.969Z,1.40
2018-01-17T05:37:41.114Z,1.40
2018-01-17T05:42:43.790Z,1.40
2018-01-17T05:47:46.853Z,1.40
2018-01-17T05:52:49.566Z,1.40
2018-01-17T05:57:52.735Z,1.30
2018-01-17T06:02:55.358Z,1.30
2018-01-17T06:07:58.448Z,1.30
2018-01-17T06:13:01.086Z,1.30
2018-01-17T06:18:05.114Z,1.30
2018-01-17T06:23:07.748Z,1.30
2018-01-17T06:28:10.933Z,1.40
2018-01-17T06:33:14.382Z,1.30
2018-01-17T06:38:18.200Z,1.30
2018-01-17T06:43:20.856Z,1.30
2018-01-17T06:48:23.504Z,1.20
2018-01-17T06:53:26.123Z,1.30
2018-01-17T06:58:29.499Z,1.30
2018-01-17T07:03:32.183Z,1.30
2018-01-17T07:08:35.539Z,1.30
2018-01-17T07:13:38.263Z,1.30
2018-01-17T07:18:41.117Z,1.30
2018-01-17T07:23:44.515Z,1.20
2018-01-17T07:28:47.198Z,1.20
2018-01-17T07:33:49.832Z,1.20
2018-01-17T07:38:54.150Z,1.00
2018-01-17T07:43:56.877Z,1.00
2018-01-17T07:49:01.051Z,1.30
2018-01-17T07:54:03.823Z,1.20
2018-01-17T07:59:06.996Z,1.30
2018-01-17T08:04:09.658Z,1.40
2018-01-17T08:09:12.810Z,1.50
2018-01-17T08:14:15.422Z,1.50
2018-01-17T08:19:19.804Z,1.80
2018-01-17T08:24:22.462Z,1.80
2018-01-17T08:29:26.656Z,1.90
2018-01-17T08:34:29.270Z,1.90
2018-01-17T08:39:32.642Z,2.00
2018-01-17T08:44:35.289Z,2.10
2018-01-17T08:49:38.503Z,2.20
2018-01-17T08:54:41.151Z,2.20
2018-01-17T08:59:44.316Z,2.30
2018-01-17T09:04:46.942Z,2.30
2018-01-17T09:09:51.214Z,2.30
2018-01-17T09:14:53.865Z,2.30
2018-01-17T09:19:57.318Z,2.40
2018-01-17T09:24:59.984Z,2.40
2018-01-17T09:30:04.367Z,2.30
2018-01-17T09:35:07.013Z,2.30
2018-01-17T09:40:10.353Z,2.20
2018-01-17T09:45:12.998Z,2.10
2018-01-17T09:50:16.392Z,2.00
2018-01-17T09:55:19.030Z,1.90
2018-01-17T10:00:22.335Z,1.40
2018-01-17T10:05:24.986Z,1.20
2018-01-17T10:10:28.165Z,1.10
2018-01-17T10:15:30.896Z,1.10
2018-01-17T10:20:33.981Z,1.10
2018-01-17T10:25:37.407Z,1.10
2018-01-17T10:30:41.044Z,1.10
2018-01-17T10:35:43.713Z,1.10
2018-01-17T10:40:46.725Z,1.20
2018-01-17T10:45:49.354Z,1.30
2018-01-17T10:50:52.733Z,1.30
2018-01-17T10:55:55.404Z,1.40
2018-01-17T11:00:58.805Z,1.30
2018-01-17T11:06:01.472Z,1.40
2018-01-17T11:11:04.906Z,1.50
2018-01-17T11:16:07.564Z,1.50
2018-01-17T11:21:10.910Z,1.60
2018-01-17T11:26:14.364Z,1.90
2018-01-17T11:31:17.948Z,1.90
2018-01-17T11:36:21.364Z,2.00
2018-01-17T11:41:24.804Z,2.40
2018-01-17T11:46:27.518Z,2.40
2018-01-17T11:51:30.814Z,2.30
2018-01-17T11:56:33.449Z,2.50
2018-01-17T12:01:36.666Z,2.30
2018-01-17T12:06:39.356Z,2.40
2018-01-17T12:11:42.745Z,2.30
2018-01-17T12:16:45.415Z,2.40
2018-01-17T12:21:49.601Z,2.30
2018-01-17T12:26:52.237Z,2.30
2018-01-17T12:31:55.334Z,2.30
2018-01-17T12:36:58.097Z,2.30
2018-01-17T12:42:01.216Z,2.40
2018-01-17T12:47:03.865Z,2.40
2018-01-17T12:52:07.499Z,2.40
2018-01-17T12:57:10.906Z,2.40
2018-01-17T13:02:14.388Z,2.50
2018-01-17T13:07:17.065Z,2.50
2018-01-17T13:12:19.954Z,2.40
2018-01-17T13:17:22.620Z,2.60
2018-01-17T13:22:25.688Z,2.60
2018-01-17T13:27:28.448Z,2.60
2018-01-17T13:32:32.586Z,2.60
2018-01-17T13:37:35.990Z,2.70
2018-01-17T13:42:39.468Z,2.80
2018-01-17T13:47:42.137Z,2.80
2018-01-17T13:52:45.547Z,3.20
2018-01-17T13:57:48.339Z,3.20
2018-01-17T14:02:52.578Z,3.00
2018-01-17T14:07:56.016Z,2.90
2018-01-17T14:12:59.509Z,2.90
2018-01-17T14:18:02.893Z,2.90
2018-01-17T14:23:06.511Z,2.90
2018-01-17T14:28:09.177Z,2.90
2018-01-17T14:33:12.610Z,2.90
2018-01-17T14:38:15.276Z,2.90
2018-01-17T14:43:18.585Z,2.80
2018-01-17T14:48:22.140Z,2.80
2018-01-17T14:53:25.627Z,2.80
2018-01-17T14:58:28.309Z,2.80
2018-01-17T15:03:32.597Z,2.80
2018-01-17T15:08:35.265Z,2.80
2018-01-17T15:13:38.580Z,2.80
2018-01-17T15:18:41.380Z,2.80
2018-01-17T15:23:44.846Z,2.80
2018-01-17T15:28:47.525Z,2.80
2018-01-17T15:33:50.866Z,2.70
2018-01-17T15:38:53.537Z,2.70
2018-01-17T15:43:56.805Z,2.70
2018-01-17T15:49:00.470Z,2.60
2018-01-17T15:54:04.964Z,2.60
2018-01-17T15:59:07.698Z,2.60
2018-01-17T16:04:11.903Z,2.60
2018-01-17T16:09:16.811Z,2.70
2018-01-17T16:14:20.684Z,2.70
2018-01-17T16:19:23.411Z,2.60
2018-01-17T16:24:26.729Z,2.60
2018-01-17T16:29:29.338Z,2.50
2018-01-17T16:34:33.797Z,2.50
2018-01-17T16:39:36.855Z,2.40
2018-01-17T16:44:40.116Z,2.60
2018-01-17T16:49:43.444Z,2.50
2018-01-17T16:54:47.905Z,2.60
2018-01-17T16:59:51.834Z,2.60
2018-01-17T17:04:56.325Z,2.60
2018-01-17T17:09:59.197Z,2.60
2018-01-17T17:15:05.998Z,2.60
2018-01-17T17:20:10.147Z,2.60
2018-01-17T17:25:13.532Z,2.60
2018-01-17T17:30:17.223Z,2.60
2018-01-17T17:35:21.005Z,2.60
2018-01-17T17:40:23.787Z,2.60
2018-01-17T17:45:26.827Z,2.60
2018-01-17T17:50:29.505Z,2.60
2018-01-17T17:55:33.457Z,2.50
2018-01-17T18:00:36.165Z,2.50
2018-01-17T18:05:38.914Z,2.50
2018-01-17T18:10:41.731Z,2.50
2018-01-17T18:15:46.172Z,2.50
2018-01-17T18:20:48.875Z,2.50
2018-01-17T18:25:51.644Z,2.60
2018-01-17T18:30:55.394Z,2.50
2018-01-17T18:35:58.998Z,2.50
2018-01-17T18:41:01.722Z,2.50
2018-01-17T18:46:04.693Z,2.60
2018-01-17T18:51:08.110Z,2.60
2018-01-17T18:56:11.676Z,2.60
2018-01-17T19:01:14.989Z,2.60
2018-01-17T19:06:18.954Z,2.60
2018-01-17T19:11:23.097Z,2.60
2018-01-17T19:16:26.832Z,2.60
2018-01-17T19:21:29.512Z,2.60
2018-01-17T19:26:33.978Z,2.60
2018-01-17T19:31:37.562Z,2.50
2018-01-17T19:36:42.294Z,2.20
2018-01-17T19:41:46.817Z,1.70
2018-01-17T19:46:49.953Z,1.40
2018-01-17T19:51:52.697Z,1.30
2018-01-17T19:56:56.024Z,1.30
2018-01-17T20:02:01.030Z,1.20
2018-01-17T20:07:16.606Z,1.20
2018-01-17T20:12:19.498Z,1.20
2018-01-17T20:17:23.163Z,1.20
2018-01-17T20:22:33.245Z,1.30
2018-01-17T20:27:36.928Z,1.30
2018-01-17T20:32:40.365Z,1.40
2018-01-17T20:37:43.975Z,1.40
2018-01-17T20:42:48.106Z,1.50
2018-01-17T20:47:53.217Z,1.50
2018-01-17T20:52:56.034Z,1.50
2018-01-17T20:57:59.461Z,1.50
2018-01-17T21:03:05.531Z,1.60
2018-01-17T21:08:09.343Z,1.60
2018-01-17T21:13:12.862Z,1.60
2018-01-17T21:18:17.333Z,1.60
2018-01-17T21:23:19.961Z,1.70
2018-01-17T21:28:26.330Z,1.80
2018-01-17T21:33:29.118Z,1.80
2018-01-17T21:38:32.871Z,1.80
2018-01-17T21:43:41.986Z,2.00
2018-01-17T21:48:44.722Z,1.90
2018-01-17T21:53:48.150Z,1.90
2018-01-17T21:58:51.880Z,1.90
2018-01-17T22:03:54.626Z,1.90
2018-01-17T22:08:58.826Z,2.00
2018-01-17T22:14:01.524Z,1.90
2018-01-17T22:19:04.589Z,2.00
2018-01-17T22:24:07.243Z,1.90
2018-01-17T22:29:10.850Z,1.90
2018-01-17T22:34:13.509Z,1.90
2018-01-17T22:39:16.821Z,1.90
2018-01-17T22:44:19.489Z,1.90
2018-01-17T22:49:22.972Z,1.90
2018-01-17T22:54:26.419Z,1.90
2018-01-17T22:59:29.906Z,1.90
2018-01-17T23:04:33.348Z,2.00
2018-01-17T23:09:36.796Z,2.00
2018-01-17T23:14:39.505Z,1.90
2018-01-17T23:19:42.606Z,2.00
2018-01-17T23:24:45.295Z,2.00
2018-01-17T23:29:48.363Z,2.00
2018-01-17T23:34:51.818Z,2.10
2018-01-17T23:39:55.320Z,2.00
2018-01-17T23:44:58.090Z,2.00
2018-01-17T23:50:00.965Z,2.10
2018-01-17T23:55:03.688Z,2.10
